createdAt,value
2023-05-22T00:02:24.502Z,11.60
2023-05-22T00:04:51.430Z,11.95
2023-05-22T00:07:18.312Z,15.98
2023-05-22T00:09:45.024Z,10.80
2023-05-22T00:12:12.884Z,10.13
2023-05-22T00:14:39.647Z,15.32
2023-05-22T00:17:06.602Z,14.02
2023-05-22T00:19:33.489Z,12.77
2023-05-22T00:22:00.308Z,12.35
2023-05-22T00:24:27.084Z,15.65
2023-05-22T00:26:53.917Z,12.30
2023-05-22T00:29:20.779Z,11.60
2023-05-22T00:31:47.597Z,13.68
2023-05-22T00:34:14.641Z,12.95
2023-05-22T00:36:41.448Z,11.65
2023-05-22T00:39:09.831Z,11.82
2023-05-22T00:41:36.926Z,14.60
2023-05-22T00:44:03.721Z,11.15
2023-05-22T00:46:31.418Z,13.18
2023-05-22T00:48:58.216Z,12.30
2023-05-22T00:51:25.723Z,13.18
2023-05-22T00:53:54.852Z,15.32
2023-05-22T00:56:22.253Z,13.15
2023-05-22T00:58:49.161Z,11.80
2023-05-22T01:01:18.052Z,12.80
2023-05-22T01:03:46.063Z,11.70
2023-05-22T01:06:14.705Z,11.98
2023-05-22T01:08:43.047Z,12.30
2023-05-22T01:11:25.644Z,13.82
2023-05-22T01:14:01.774Z,12.65
2023-05-22T01:21:37.353Z,12.93
2023-05-22T01:24:37.578Z,13.75
2023-05-22T01:27:42.783Z,15.15
2023-05-22T01:30:18.727Z,14.05
2023-05-22T01:32:48.416Z,14.43
2023-05-22T01:35:19.033Z,12.52
2023-05-22T01:37:46.125Z,11.32
2023-05-22T01:40:13.923Z,15.52
2023-05-22T01:42:41.463Z,13.27
2023-05-22T01:45:10.673Z,14.10
2023-05-22T01:47:37.467Z,13.98
2023-05-22T01:50:05.988Z,14.80
2023-05-22T01:52:59.213Z,16.42
2023-05-22T01:55:56.049Z,16.35
2023-05-22T01:58:32.106Z,12.70
2023-05-22T02:01:01.042Z,13.80
2023-05-22T02:03:33.925Z,17.13
2023-05-22T02:06:05.311Z,15.52
2023-05-22T02:08:33.087Z,13.63
2023-05-22T02:11:02.303Z,15.10
2023-05-22T02:13:29.163Z,14.23
2023-05-22T02:15:57.462Z,16.05
2023-05-22T02:18:29.762Z,13.70
2023-05-22T02:21:00.308Z,15.57
2023-05-22T02:23:29.842Z,12.43
2023-05-22T02:25:56.887Z,13.40
2023-05-22T02:28:24.142Z,15.50
2023-05-22T02:30:50.948Z,15.75
2023-05-22T02:33:20.542Z,11.93
2023-05-22T02:35:47.383Z,11.63
2023-05-22T02:38:14.137Z,14.25
2023-05-22T02:40:41.206Z,13.63
2023-05-22T02:43:08.221Z,12.50
2023-05-22T02:45:35.085Z,13.95
2023-05-22T02:48:03.854Z,14.25
2023-05-22T02:50:30.774Z,13.40
2023-05-22T02:52:57.601Z,16.50
2023-05-22T02:55:24.499Z,12.80
2023-05-22T02:57:51.283Z,12.95
2023-05-22T03:00:18.633Z,15.07
2023-05-22T03:02:45.521Z,12.77
2023-05-22T03:05:17.856Z,13.98
2023-05-22T03:07:48.209Z,14.85
2023-05-22T03:10:15.568Z,13.18
2023-05-22T03:12:42.398Z,14.18
2023-05-22T03:15:09.790Z,13.77
2023-05-22T03:17:36.695Z,16.45
2023-05-22T03:20:05.513Z,15.98
2023-05-22T03:22:32.626Z,14.35
2023-05-22T03:24:59.355Z,12.68
2023-05-22T03:27:26.204Z,15.77
2023-05-22T03:29:53.257Z,12.65
2023-05-22T03:32:20.044Z,14.23
2023-05-22T03:34:46.789Z,13.50
2023-05-22T03:37:13.515Z,13.18
2023-05-22T03:39:40.271Z,13.77
2023-05-22T03:42:07.123Z,13.27
2023-05-22T03:44:33.856Z,13.82
2023-05-22T03:47:00.702Z,15.57
2023-05-22T03:49:27.490Z,14.10
2023-05-22T03:51:54.248Z,13.23
2023-05-22T03:54:21.176Z,14.38
2023-05-22T03:56:47.916Z,14.55
2023-05-22T03:59:14.709Z,13.48
2023-05-22T04:01:41.399Z,12.63
2023-05-22T04:04:09.723Z,18.23
2023-05-22T04:06:43.325Z,15.10
2023-05-22T04:09:12.042Z,12.93
2023-05-22T04:11:42.685Z,13.40
2023-05-22T04:14:09.568Z,13.20
2023-05-22T04:16:36.525Z,13.00
2023-05-22T04:19:03.776Z,13.32
2023-05-22T04:21:34.507Z,12.43
2023-05-22T04:24:07.303Z,13.65
2023-05-22T04:26:34.429Z,17.60
2023-05-22T04:29:01.359Z,15.07
2023-05-22T04:31:28.616Z,15.10
2023-05-22T04:33:56.216Z,14.60
2023-05-22T04:36:26.252Z,21.33
2023-05-22T04:38:54.157Z,19.38
2023-05-22T04:41:26.905Z,15.80
2023-05-22T04:43:54.167Z,19.13
2023-05-22T04:46:21.378Z,16.80
2023-05-22T04:48:48.263Z,15.68
2023-05-22T04:51:15.244Z,20.23
2023-05-22T04:53:41.993Z,20.02
2023-05-22T04:56:08.792Z,19.33
2023-05-22T04:58:37.999Z,23.27
2023-05-22T05:01:04.925Z,19.52
2023-05-22T05:03:31.886Z,16.48
2023-05-22T05:05:59.625Z,16.05
2023-05-22T05:08:26.454Z,16.30
2023-05-22T05:10:53.161Z,15.88
2023-05-22T05:13:19.931Z,16.20
2023-05-22T05:15:47.156Z,14.43
2023-05-22T05:18:13.969Z,17.10
2023-05-22T05:20:40.864Z,13.70
2023-05-22T05:23:09.987Z,16.23
2023-05-22T05:25:38.770Z,16.73
2023-05-22T05:28:11.819Z,15.73
2023-05-22T05:30:39.690Z,12.93
2023-05-22T05:33:07.396Z,15.77
2023-05-22T05:35:34.198Z,13.80
2023-05-22T05:38:01.799Z,17.05
2023-05-22T05:40:28.815Z,12.80
2023-05-22T05:42:56.481Z,12.75
2023-05-22T05:45:23.300Z,12.93
2023-05-22T05:47:50.148Z,15.15
2023-05-22T05:50:17.351Z,12.68
2023-05-22T05:52:44.249Z,12.32
2023-05-22T05:55:11.024Z,11.02
2023-05-22T05:57:37.844Z,13.13
2023-05-22T06:00:05.955Z,12.20
2023-05-22T06:02:32.821Z,10.40
2023-05-22T06:04:59.748Z,9.65
2023-05-22T06:07:28.721Z,13.88
2023-05-22T06:09:55.503Z,11.23
2023-05-22T06:12:22.432Z,11.57
2023-05-22T06:14:49.257Z,12.80
2023-05-22T06:17:16.930Z,11.32
2023-05-22T06:19:43.765Z,10.48
2023-05-22T06:22:10.679Z,10.23
2023-05-22T06:24:37.616Z,9.30
2023-05-22T06:27:04.547Z,8.98
2023-05-22T06:29:31.402Z,9.73
2023-05-22T06:31:58.254Z,8.35
2023-05-22T06:34:26.057Z,10.38
2023-05-22T06:36:52.840Z,10.38
2023-05-22T06:39:19.641Z,12.77
2023-05-22T06:41:46.453Z,10.77
2023-05-22T06:44:13.344Z,11.18
2023-05-22T06:46:40.229Z,11.05
2023-05-22T06:49:07.133Z,9.57
2023-05-22T06:51:34.377Z,10.13
2023-05-22T06:54:01.241Z,10.07
2023-05-22T06:56:28.005Z,10.32
2023-05-22T06:58:54.845Z,9.70
2023-05-22T07:01:21.861Z,8.43
2023-05-22T07:03:48.699Z,10.63
2023-05-22T07:06:15.849Z,9.93
2023-05-22T07:08:42.818Z,10.63
2023-05-22T07:11:09.631Z,9.15
2023-05-22T07:13:36.678Z,10.20
2023-05-22T07:16:03.495Z,10.57
2023-05-22T07:18:30.263Z,10.60
2023-05-22T07:20:58.629Z,8.48
2023-05-22T07:23:26.375Z,10.88
2023-05-22T07:25:53.437Z,8.52
2023-05-22T07:28:20.343Z,8.30
2023-05-22T07:30:47.058Z,8.50
2023-05-22T07:33:14.338Z,7.50
2023-05-22T07:35:41.121Z,9.88
2023-05-22T07:38:07.965Z,10.68
2023-05-22T07:40:34.748Z,8.80
2023-05-22T07:43:01.599Z,8.13
2023-05-22T07:45:28.333Z,8.73
2023-05-22T07:47:56.374Z,9.15
2023-05-22T07:50:23.312Z,11.35
2023-05-22T07:52:50.071Z,9.90
2023-05-22T07:55:16.930Z,9.48
2023-05-22T07:57:44.556Z,7.85
2023-05-22T08:00:14.707Z,8.95
2023-05-22T08:02:41.808Z,8.18
2023-05-22T08:05:09.770Z,8.55
2023-05-22T08:07:36.780Z,8.35
2023-05-22T08:10:07.485Z,8.35
2023-05-22T08:12:34.285Z,7.93
2023-05-22T08:15:01.053Z,10.07
2023-05-22T08:17:27.885Z,8.63
2023-05-22T08:19:54.795Z,7.32
2023-05-22T08:22:21.647Z,9.35
2023-05-22T08:24:48.422Z,7.20
2023-05-22T08:27:17.920Z,11.77
2023-05-22T08:29:44.682Z,7.53
2023-05-22T08:32:11.478Z,6.07
2023-05-22T08:34:40.389Z,6.78
2023-05-22T08:37:07.188Z,8.20
2023-05-22T08:39:33.975Z,6.50
2023-05-22T08:42:02.594Z,6.55
2023-05-22T08:44:29.605Z,7.75
2023-05-22T08:46:59.930Z,12.55
2023-05-22T08:49:27.276Z,6.57
2023-05-22T08:51:59.788Z,10.65
2023-05-22T08:54:28.864Z,11.77
2023-05-22T08:56:57.154Z,9.68
2023-05-22T08:59:25.055Z,6.35
2023-05-22T09:01:53.661Z,5.53
2023-05-22T09:04:23.908Z,7.85
2023-05-22T09:06:51.571Z,11.35
2023-05-22T09:09:18.916Z,5.15
2023-05-22T09:11:46.041Z,8.18
2023-05-22T09:14:12.847Z,7.57
2023-05-22T09:16:47.713Z,9.40
2023-05-22T09:19:16.070Z,9.00
2023-05-22T09:21:44.582Z,6.47
2023-05-22T09:24:11.961Z,9.30
2023-05-22T09:26:39.823Z,6.40
2023-05-22T09:29:09.916Z,12.27
2023-05-22T09:31:43.965Z,8.30
2023-05-22T09:34:11.526Z,6.68
2023-05-22T09:36:38.316Z,9.13
2023-05-22T09:39:05.490Z,9.73
2023-05-22T09:41:41.386Z,7.70
2023-05-22T09:44:15.401Z,10.43
2023-05-22T09:46:46.637Z,8.18
2023-05-22T09:49:16.185Z,8.68
2023-05-22T09:51:47.481Z,8.40
2023-05-22T09:54:15.603Z,7.97
2023-05-22T09:56:44.495Z,8.15
2023-05-22T09:59:14.019Z,7.53
2023-05-22T10:01:42.724Z,7.63
2023-05-22T10:04:13.951Z,6.35
2023-05-22T10:06:43.234Z,7.43
2023-05-22T10:09:19.255Z,8.10
2023-05-22T10:11:47.630Z,9.23
2023-05-22T10:14:15.245Z,11.50
2023-05-22T10:16:43.264Z,6.13
2023-05-22T10:19:11.413Z,6.55
2023-05-22T10:21:41.392Z,10.23
2023-05-22T10:24:08.826Z,6.70
2023-05-22T10:26:35.634Z,7.65
2023-05-22T10:29:12.323Z,7.07
2023-05-22T10:32:08.248Z,7.30
2023-05-22T10:34:49.479Z,7.68
2023-05-22T10:37:33.097Z,6.80
2023-05-22T10:40:09.093Z,6.70
2023-05-22T10:42:38.082Z,8.68
2023-05-22T10:45:07.898Z,7.82
2023-05-22T10:47:36.212Z,8.23
2023-05-22T10:50:11.664Z,5.15
2023-05-22T10:52:40.247Z,6.00
2023-05-22T10:55:11.403Z,9.57
2023-05-22T10:57:39.795Z,8.80
2023-05-22T11:00:10.765Z,7.85
2023-05-22T11:02:43.229Z,5.43
2023-05-22T11:05:21.797Z,6.75
2023-05-22T11:07:49.177Z,7.15
2023-05-22T11:10:26.415Z,10.43
2023-05-22T11:13:12.218Z,6.38
2023-05-22T11:15:45.606Z,11.23
2023-05-22T11:18:14.540Z,4.75
2023-05-22T11:20:41.705Z,7.78
2023-05-22T11:23:11.337Z,9.95
2023-05-22T11:25:40.867Z,6.20
2023-05-22T11:28:08.215Z,9.73
2023-05-22T11:30:35.338Z,8.82
2023-05-22T11:33:02.989Z,7.05
2023-05-22T11:35:29.923Z,7.40
2023-05-22T11:37:57.178Z,7.93
2023-05-22T11:40:25.979Z,8.55
2023-05-22T11:42:54.115Z,8.40
2023-05-22T11:45:21.664Z,6.45
2023-05-22T11:47:49.090Z,7.72
2023-05-22T11:50:22.528Z,10.07
2023-05-22T11:52:54.181Z,8.85
2023-05-22T11:55:20.965Z,6.40
2023-05-22T11:57:48.218Z,8.07
2023-05-22T12:00:15.730Z,7.53
2023-05-22T12:02:49.256Z,5.03
2023-05-22T12:05:16.849Z,7.43
2023-05-22T12:07:44.212Z,7.60
2023-05-22T12:10:11.437Z,7.47
2023-05-22T12:12:39.131Z,6.57
2023-05-22T12:15:07.376Z,8.25
2023-05-22T12:17:37.600Z,11.63
2023-05-22T12:20:05.701Z,6.30
2023-05-22T12:22:32.599Z,7.50
2023-05-22T12:24:59.439Z,9.60
2023-05-22T12:27:32.704Z,8.35
2023-05-22T12:30:10.747Z,7.60
2023-05-22T12:32:37.589Z,11.93
2023-05-22T12:35:04.863Z,7.47
2023-05-22T12:37:33.886Z,6.88
2023-05-22T12:42:29.005Z,8.50
2023-05-22T12:44:57.352Z,7.10
2023-05-22T12:47:25.736Z,6.30
2023-05-22T12:49:53.231Z,7.32
2023-05-22T12:52:19.987Z,8.73
2023-05-22T12:54:47.060Z,7.07
2023-05-22T12:57:13.901Z,8.55
2023-05-22T12:59:41.325Z,6.18
2023-05-22T13:02:08.536Z,7.40
2023-05-22T13:04:35.681Z,10.32
2023-05-22T13:07:02.510Z,8.82
2023-05-22T13:09:29.414Z,9.68
2023-05-22T13:11:56.690Z,8.27
2023-05-22T13:14:23.509Z,6.82
2023-05-22T13:16:50.384Z,6.35
2023-05-22T13:19:17.310Z,7.25
2023-05-22T13:21:44.269Z,7.28
2023-05-22T13:24:11.227Z,8.57
2023-05-22T13:26:38.100Z,5.45
2023-05-22T13:29:05.103Z,8.82
2023-05-22T13:31:37.455Z,12.43
2023-05-22T13:34:05.177Z,9.32
2023-05-22T13:36:32.595Z,5.38
2023-05-22T13:38:59.489Z,6.35
2023-05-22T13:43:56.958Z,6.28
2023-05-22T13:46:23.952Z,8.32
2023-05-22T13:48:50.791Z,5.20
2023-05-22T13:51:17.542Z,5.20
2023-05-22T13:53:44.555Z,5.65
2023-05-22T13:56:11.388Z,6.75
2023-05-22T13:58:38.177Z,6.13
2023-05-22T14:01:05.031Z,6.93
2023-05-22T14:03:32.360Z,6.60
2023-05-22T14:05:59.473Z,6.07
2023-05-22T14:08:26.532Z,7.35
2023-05-22T14:10:53.867Z,6.18
2023-05-22T14:13:20.767Z,7.25
2023-05-22T14:15:47.618Z,5.07
2023-05-22T14:18:16.746Z,4.40
2023-05-22T14:20:44.403Z,5.47
2023-05-22T14:23:12.688Z,5.13
2023-05-22T14:25:45.924Z,5.00
2023-05-22T14:28:14.148Z,4.70
2023-05-22T14:30:41.294Z,5.03
2023-05-22T14:33:08.812Z,6.45
2023-05-22T14:35:36.702Z,6.85
2023-05-22T14:38:03.503Z,3.55
2023-05-22T14:40:30.460Z,8.95
2023-05-22T14:42:57.229Z,5.75
2023-05-22T14:45:24.200Z,4.93
2023-05-22T14:47:51.190Z,5.45
2023-05-22T14:50:20.260Z,4.00
2023-05-22T14:52:49.384Z,5.15
2023-05-22T14:57:44.029Z,7.22
2023-05-22T15:00:13.547Z,4.85
2023-05-22T15:02:41.031Z,6.15
2023-05-22T15:05:08.581Z,4.25
2023-05-22T15:07:43.913Z,4.75
2023-05-22T15:10:13.442Z,7.70
2023-05-22T15:12:40.272Z,5.83
2023-05-22T15:15:07.899Z,7.75
2023-05-22T15:17:34.832Z,3.17
2023-05-22T15:20:05.583Z,2.47
2023-05-22T15:22:32.573Z,4.75
2023-05-22T15:25:11.666Z,2.72
2023-05-22T15:27:39.507Z,4.80
2023-05-22T15:30:10.696Z,4.88
2023-05-22T15:32:38.338Z,4.07
2023-05-22T15:35:09.778Z,4.97
2023-05-22T15:37:44.176Z,3.28
2023-05-22T15:40:12.803Z,4.80
2023-05-22T15:42:40.835Z,3.53
2023-05-22T15:45:10.760Z,3.30
2023-05-22T15:47:41.705Z,4.75
2023-05-22T15:50:09.228Z,5.03
2023-05-22T15:52:36.489Z,3.83
2023-05-22T15:55:08.132Z,4.18
2023-05-22T15:57:34.914Z,5.47
2023-05-22T16:00:03.969Z,3.83
2023-05-22T16:02:30.888Z,7.20
2023-05-22T16:04:57.754Z,4.80
2023-05-22T16:07:24.608Z,6.72
2023-05-22T16:09:51.449Z,9.00
2023-05-22T16:12:19.047Z,5.38
2023-05-22T16:14:45.939Z,4.95
2023-05-22T16:17:12.835Z,7.45
2023-05-22T16:19:39.689Z,5.68
2023-05-22T16:22:06.536Z,4.63
2023-05-22T16:24:33.808Z,7.20
2023-05-22T16:27:00.755Z,4.53
2023-05-22T16:29:27.520Z,3.67
2023-05-22T16:31:57.295Z,6.22
2023-05-22T16:34:24.173Z,5.30
2023-05-22T16:36:50.936Z,4.60
2023-05-22T16:39:17.752Z,4.47
2023-05-22T16:41:44.695Z,4.97
2023-05-22T16:44:11.484Z,6.13
2023-05-22T16:46:38.306Z,4.53
2023-05-22T16:49:05.145Z,5.88
2023-05-22T16:51:32.291Z,4.45
2023-05-22T16:53:59.201Z,4.63
2023-05-22T16:56:26.160Z,4.47
2023-05-22T16:58:52.990Z,6.15
2023-05-22T17:01:21.867Z,7.90
2023-05-22T17:03:48.911Z,5.68
2023-05-22T17:06:15.773Z,5.65
2023-05-22T17:08:42.578Z,5.00
2023-05-22T17:11:09.457Z,6.47
2023-05-22T17:13:36.328Z,4.65
2023-05-22T17:16:03.154Z,8.77
2023-05-22T17:18:29.991Z,6.38
2023-05-22T17:20:57.110Z,5.00
2023-05-22T17:23:23.981Z,4.90
2023-05-22T17:25:50.853Z,4.18
2023-05-22T17:28:17.672Z,4.13
2023-05-22T17:30:45.384Z,4.18
2023-05-22T17:33:12.881Z,5.40
2023-05-22T17:35:39.872Z,7.32
2023-05-22T17:38:08.641Z,6.20
2023-05-22T17:40:45.054Z,4.82
2023-05-22T17:43:13.142Z,4.05
2023-05-22T17:45:40.344Z,5.28
2023-05-22T17:48:07.912Z,11.80
2023-05-22T17:50:35.014Z,7.03
2023-05-22T17:53:01.802Z,7.93
2023-05-22T17:55:28.529Z,6.78
2023-05-22T17:57:56.271Z,7.88
2023-05-22T18:00:23.169Z,8.13
2023-05-22T18:02:49.988Z,9.75
2023-05-22T18:05:16.871Z,7.88
2023-05-22T18:07:43.813Z,5.15
2023-05-22T18:10:10.994Z,5.47
2023-05-22T18:12:38.572Z,4.68
2023-05-22T18:15:08.604Z,11.45
2023-05-22T18:17:35.494Z,5.75
2023-05-22T18:20:02.286Z,4.80
2023-05-22T18:22:29.002Z,6.38
2023-05-22T18:24:56.381Z,4.78
2023-05-22T18:27:23.193Z,5.22
2023-05-22T18:29:51.820Z,6.30
2023-05-22T18:32:18.692Z,5.97
2023-05-22T18:34:45.458Z,4.03
2023-05-22T18:37:12.203Z,5.32
2023-05-22T18:39:39.051Z,4.68
2023-05-22T18:42:06.081Z,5.20
2023-05-22T18:44:32.892Z,5.40
2023-05-22T18:46:59.744Z,5.03
2023-05-22T18:49:26.522Z,5.00
2023-05-22T18:51:53.423Z,5.97
2023-05-22T18:54:20.320Z,5.20
2023-05-22T18:56:47.192Z,6.63
2023-05-22T18:59:14.030Z,5.22
2023-05-22T19:01:44.727Z,5.95
2023-05-22T19:04:11.966Z,5.18
2023-05-22T19:06:42.210Z,6.78
2023-05-22T19:09:12.835Z,4.85
2023-05-22T19:11:39.567Z,6.93
2023-05-22T19:14:06.372Z,6.50
2023-05-22T19:16:33.183Z,9.45
2023-05-22T19:19:00.013Z,7.55
2023-05-22T19:21:26.892Z,9.70
2023-05-22T19:23:53.740Z,5.97
2023-05-22T19:26:20.645Z,5.25
2023-05-22T19:28:47.390Z,7.72
2023-05-22T19:31:14.231Z,7.97
2023-05-22T19:33:40.992Z,5.18
2023-05-22T19:36:07.970Z,6.88
2023-05-22T19:38:35.045Z,7.40
2023-05-22T19:41:02.037Z,5.53
2023-05-22T19:43:31.413Z,5.32
2023-05-22T19:45:58.619Z,6.70
2023-05-22T19:48:25.841Z,7.70
2023-05-22T19:50:53.137Z,6.70
2023-05-22T19:53:19.959Z,10.75
2023-05-22T19:55:47.632Z,6.82
2023-05-22T19:58:17.235Z,7.10
2023-05-22T20:00:44.133Z,8.13
2023-05-22T20:03:11.963Z,8.55
2023-05-22T20:05:38.881Z,7.65
2023-05-22T20:08:06.044Z,7.47
2023-05-22T20:10:33.378Z,5.45
2023-05-22T20:13:00.242Z,8.18
2023-05-22T20:15:27.223Z,6.70
2023-05-22T20:17:54.496Z,5.40
2023-05-22T20:20:23.943Z,7.70
2023-05-22T20:22:52.849Z,5.53
2023-05-22T20:25:21.380Z,5.50
2023-05-22T20:27:48.383Z,11.02
2023-05-22T20:30:15.310Z,9.60
2023-05-22T20:32:46.634Z,6.45
2023-05-22T20:35:13.684Z,5.22
2023-05-22T20:37:41.788Z,10.05
2023-05-22T20:40:09.718Z,9.15
2023-05-22T20:42:37.734Z,9.63
2023-05-22T20:45:05.937Z,6.72
2023-05-22T20:47:34.729Z,7.15
2023-05-22T20:50:02.053Z,8.40
2023-05-22T20:52:30.565Z,7.00
2023-05-22T20:55:00.731Z,8.68
2023-05-22T20:57:27.541Z,5.75
2023-05-22T20:59:58.443Z,8.18
2023-05-22T21:02:26.398Z,6.32
2023-05-22T21:04:53.733Z,9.27
2023-05-22T21:07:20.539Z,10.52
2023-05-22T21:09:47.322Z,9.02
2023-05-22T21:12:16.891Z,7.70
2023-05-22T21:14:44.199Z,10.88
2023-05-22T21:17:11.015Z,8.15
2023-05-22T21:19:37.948Z,7.43
2023-05-22T21:22:04.876Z,7.53
2023-05-22T21:24:32.756Z,9.70
2023-05-22T21:26:59.559Z,7.93
2023-05-22T21:29:26.365Z,7.93
2023-05-22T21:31:53.297Z,7.03
2023-05-22T21:34:20.340Z,7.75
2023-05-22T21:36:47.099Z,8.85
2023-05-22T21:39:13.939Z,8.63
2023-05-22T21:41:40.852Z,9.23
2023-05-22T21:44:10.037Z,8.98
2023-05-22T21:46:37.352Z,7.82
2023-05-22T21:49:06.274Z,8.50
2023-05-22T21:51:33.272Z,7.97
2023-05-22T21:54:00.044Z,8.82
2023-05-22T21:56:27.231Z,8.45
2023-05-22T21:58:55.983Z,9.95
2023-05-22T22:01:23.473Z,9.40
2023-05-22T22:03:50.274Z,8.68
2023-05-22T22:06:17.141Z,7.82
2023-05-22T22:08:43.904Z,10.15
2023-05-22T22:11:16.859Z,8.18
2023-05-22T22:13:43.772Z,12.52
2023-05-22T22:16:10.577Z,10.60
2023-05-22T22:18:37.492Z,11.10
2023-05-22T22:21:04.700Z,9.88
2023-05-22T22:23:31.501Z,7.72
2023-05-22T22:26:01.875Z,10.90
2023-05-22T22:28:28.652Z,10.82
2023-05-22T22:30:55.580Z,8.48
2023-05-22T22:33:22.954Z,9.82
2023-05-22T22:35:49.921Z,8.95
2023-05-22T22:38:16.667Z,11.02
2023-05-22T22:40:43.519Z,8.52
2023-05-22T22:43:10.503Z,9.80
2023-05-22T22:45:37.293Z,9.48
2023-05-22T22:48:04.162Z,8.23
2023-05-22T22:50:31.745Z,9.23
2023-05-22T22:52:58.569Z,12.23
2023-05-22T22:55:25.558Z,7.72
2023-05-22T22:57:53.520Z,8.00
2023-05-22T23:03:33.581Z,8.35
2023-05-22T23:06:00.525Z,8.93
2023-05-22T23:08:27.287Z,9.30
2023-05-22T23:10:54.073Z,7.90
2023-05-22T23:13:21.001Z,8.93
2023-05-22T23:15:48.254Z,13.07
2023-05-22T23:18:15.480Z,8.00
2023-05-22T23:20:42.301Z,10.52
2023-05-22T23:23:09.061Z,9.32
2023-05-22T23:25:44.706Z,8.38
2023-05-22T23:28:11.522Z,8.10
2023-05-22T23:30:38.308Z,9.32
2023-05-22T23:33:06.268Z,7.53
2023-05-22T23:35:33.037Z,7.85
2023-05-22T23:37:59.856Z,10.13
2023-05-22T23:40:26.596Z,8.68
2023-05-22T23:42:53.535Z,9.57
2023-05-22T23:45:20.365Z,9.90
2023-05-22T23:47:47.218Z,9.02
2023-05-22T23:50:13.989Z,7.97
2023-05-22T23:52:41.001Z,9.70
2023-05-22T23:55:08.610Z,9.75
2023-05-22T23:57:56.965Z,10.02
